createdAt,value
2018-04-28T00:00:32.502Z,721.38
2018-04-28T00:01:33.023Z,721.44
2018-04-28T00:02:33.443Z,721.42
2018-04-28T00:03:33.914Z,721.46
2018-04-28T00:04:34.387Z,721.48
2018-04-28T00:05:34.857Z,721.51
2018-04-28T00:06:35.381Z,721.47
2018-04-28T00:07:35.801Z,721.42
2018-04-28T00:08:36.278Z,721.37
2018-04-28T00:09:37.117Z,721.40
2018-04-28T00:10:37.218Z,721.36
2018-04-28T00:11:37.689Z,721.43
2018-04-28T00:12:38.166Z,721.40
2018-04-28T00:13:38.633Z,721.41
2018-04-28T00:14:39.108Z,721.44
2018-04-28T00:15:39.583Z,721.37
2018-04-28T00:16:40.054Z,721.34
2018-04-28T00:17:40.526Z,721.38
2018-04-28T00:18:41.001Z,721.43
2018-04-28T00:19:41.475Z,721.39
2018-04-28T00:20:41.950Z,721.44
2018-04-28T00:21:42.423Z,721.42
2018-04-28T00:22:42.895Z,721.39
2018-04-28T00:23:43.366Z,721.40
2018-04-28T00:24:43.841Z,721.40
2018-04-28T00:25:44.317Z,721.38
2018-04-28T00:26:44.789Z,721.30
2018-04-28T00:27:45.263Z,721.35
2018-04-28T00:28:45.738Z,721.34
2018-04-28T00:29:46.212Z,721.38
2018-04-28T00:30:46.686Z,721.33
2018-04-28T00:31:47.162Z,721.36
2018-04-28T00:32:47.640Z,721.36
2018-04-28T00:33:48.107Z,721.38
2018-04-28T00:34:48.581Z,721.33
2018-04-28T00:35:49.058Z,721.33
2018-04-28T00:36:49.531Z,721.30
2018-04-28T00:37:50.005Z,721.36
2018-04-28T00:38:50.481Z,721.27
2018-04-28T00:39:50.953Z,721.29
2018-04-28T00:40:51.430Z,721.29
2018-04-28T00:41:51.951Z,721.30
2018-04-28T00:42:52.375Z,721.30
2018-04-28T00:43:52.848Z,721.28
2018-04-28T00:44:53.323Z,721.27
2018-04-28T00:45:53.797Z,721.20
2018-04-28T00:46:54.269Z,721.25
2018-04-28T00:47:54.742Z,721.21
2018-04-28T00:48:55.218Z,721.24
2018-04-28T00:49:55.687Z,721.16
2018-04-28T00:50:56.160Z,721.27
2018-04-28T00:51:56.631Z,721.22
2018-04-28T00:52:57.103Z,721.21
2018-04-28T00:53:57.573Z,721.26
2018-04-28T00:54:58.048Z,721.22
2018-04-28T00:55:58.518Z,721.22
2018-04-28T00:56:58.993Z,721.21
2018-04-28T00:57:59.460Z,721.24
2018-04-28T00:58:59.930Z,721.26
2018-04-28T01:00:00.404Z,721.28
2018-04-28T01:01:00.872Z,721.27
2018-04-28T01:02:01.342Z,721.24
2018-04-28T01:03:01.817Z,721.24
2018-04-28T01:04:02.287Z,721.23
2018-04-28T01:05:02.755Z,721.22
2018-04-28T01:06:03.224Z,721.21
2018-04-28T01:07:03.695Z,721.19
2018-04-28T01:08:04.168Z,721.22
2018-04-28T01:09:04.635Z,721.17
2018-04-28T01:10:05.108Z,721.16
2018-04-28T01:11:05.576Z,721.17
2018-04-28T01:12:06.050Z,721.18
2018-04-28T01:13:06.517Z,721.18
2018-04-28T01:14:06.987Z,721.24
2018-04-28T01:15:07.459Z,721.17
2018-04-28T01:16:07.929Z,721.18
2018-04-28T01:17:08.451Z,721.26
2018-04-28T01:18:08.873Z,721.22
2018-04-28T01:19:09.343Z,721.17
2018-04-28T01:20:09.817Z,721.17
2018-04-28T01:21:10.285Z,721.23
2018-04-28T01:22:10.755Z,721.22
2018-04-28T01:23:11.227Z,721.23
2018-04-28T01:24:11.703Z,721.22
2018-04-28T01:25:12.173Z,721.26
2018-04-28T01:26:12.641Z,721.24
2018-04-28T01:27:13.115Z,721.30
2018-04-28T01:28:13.590Z,721.33
2018-04-28T01:29:14.059Z,721.26
2018-04-28T01:30:14.531Z,721.31
2018-04-28T01:31:15.001Z,721.30
2018-04-28T01:32:15.476Z,721.23
2018-04-28T01:33:15.949Z,721.28
2018-04-28T01:34:16.422Z,721.30
2018-04-28T01:35:16.892Z,721.32
2018-04-28T01:36:17.366Z,721.23
2018-04-28T01:37:17.839Z,721.29
2018-04-28T01:38:18.312Z,721.28
2018-04-28T01:39:18.785Z,721.25
2018-04-28T01:40:19.259Z,721.27
2018-04-28T01:41:19.731Z,721.19
2018-04-28T01:42:20.205Z,721.20
2018-04-28T01:43:20.677Z,721.20
2018-04-28T01:44:21.151Z,721.23
2018-04-28T01:45:21.628Z,721.21
2018-04-28T01:46:22.101Z,721.20
2018-04-28T01:47:22.622Z,721.20
2018-04-28T01:48:23.046Z,721.26
2018-04-28T01:49:23.520Z,721.22
2018-04-28T01:50:23.996Z,721.28
2018-04-28T01:51:24.466Z,721.23
2018-04-28T01:52:24.941Z,721.23
2018-04-28T01:53:25.418Z,721.22
2018-04-28T01:54:25.889Z,721.29
2018-04-28T01:55:26.364Z,721.27
2018-04-28T01:56:26.838Z,721.31
2018-04-28T01:57:27.312Z,721.28
2018-04-28T01:58:27.786Z,721.28
2018-04-28T01:59:28.262Z,721.28
2018-04-28T02:00:28.738Z,721.30
2018-04-28T02:01:29.214Z,721.29
2018-04-28T02:02:29.684Z,721.29
2018-04-28T02:03:30.163Z,721.28
2018-04-28T02:04:30.632Z,721.36
2018-04-28T02:05:31.107Z,721.30
2018-04-28T02:06:31.580Z,721.27
2018-04-28T02:07:32.105Z,721.27
2018-04-28T02:08:32.528Z,721.21
2018-04-28T02:09:33.001Z,721.25
2018-04-28T02:10:33.475Z,721.14
2018-04-28T02:11:33.947Z,721.17
2018-04-28T02:12:34.421Z,721.18
2018-04-28T02:13:34.897Z,721.19
2018-04-28T02:14:35.364Z,721.24
2018-04-28T02:15:35.839Z,721.17
2018-04-28T02:16:36.310Z,721.17
2018-04-28T02:17:36.781Z,721.21
2018-04-28T02:18:37.253Z,721.18
2018-04-28T02:19:37.727Z,721.16
2018-04-28T02:20:38.197Z,721.18
2018-04-28T02:21:38.668Z,721.26
2018-04-28T02:22:39.138Z,721.24
2018-04-28T02:23:39.608Z,721.27
2018-04-28T02:24:40.079Z,721.21
2018-04-28T02:25:40.550Z,721.24
2018-04-28T02:26:41.020Z,721.24
2018-04-28T02:27:41.493Z,721.21
2018-04-28T02:28:41.967Z,721.22
2018-04-28T02:29:42.432Z,721.19
2018-04-28T02:30:42.903Z,721.22
2018-04-28T02:31:43.372Z,721.21
2018-04-28T02:32:43.842Z,721.22
2018-04-28T02:33:44.313Z,721.21
2018-04-28T02:34:44.784Z,721.23
2018-04-28T02:35:45.255Z,721.27
2018-04-28T02:36:45.730Z,721.19
2018-04-28T02:37:46.195Z,721.18
2018-04-28T02:38:46.664Z,721.18
2018-04-28T02:39:47.138Z,721.17
2018-04-28T02:40:47.607Z,721.18
2018-04-28T02:41:48.078Z,721.17
2018-04-28T02:42:48.555Z,721.17
2018-04-28T02:43:49.019Z,721.11
2018-04-28T02:44:49.491Z,721.14
2018-04-28T02:45:49.962Z,721.15
2018-04-28T02:46:50.469Z,721.16
2018-04-28T02:47:50.905Z,721.20
2018-04-28T02:48:51.375Z,721.20
2018-04-28T02:49:51.848Z,721.17
2018-04-28T02:50:52.318Z,721.22
2018-04-28T02:51:52.794Z,721.20
2018-04-28T02:52:53.260Z,721.19
2018-04-28T02:53:53.735Z,721.18
2018-04-28T02:54:54.207Z,721.20
2018-04-28T02:55:54.677Z,721.19
2018-04-28T02:56:55.158Z,721.23
2018-04-28T02:57:55.677Z,721.17
2018-04-28T02:58:56.092Z,721.17
2018-04-28T02:59:56.567Z,721.16
2018-04-28T03:00:57.040Z,721.13
2018-04-28T03:01:57.513Z,721.11
2018-04-28T03:02:57.986Z,721.13
2018-04-28T03:03:58.457Z,721.12
2018-04-28T03:04:58.931Z,721.12
2018-04-28T03:05:59.404Z,721.09
2018-04-28T03:06:59.875Z,721.04
2018-04-28T03:08:00.399Z,721.02
2018-04-28T03:09:00.821Z,721.02
2018-04-28T03:10:01.359Z,721.11
2018-04-28T03:11:01.774Z,721.06
2018-04-28T03:12:02.240Z,721.08
2018-04-28T03:13:02.715Z,721.13
2018-04-28T03:14:03.189Z,721.02
2018-04-28T03:15:03.662Z,721.14
2018-04-28T03:16:04.135Z,721.10
2018-04-28T03:17:04.609Z,721.08
2018-04-28T03:18:05.134Z,721.11
2018-04-28T03:19:05.556Z,721.10
2018-04-28T03:20:06.032Z,721.17
2018-04-28T03:21:06.506Z,721.07
2018-04-28T03:22:06.978Z,721.07
2018-04-28T03:23:07.796Z,721.09
2018-04-28T03:24:07.925Z,721.10
2018-04-28T03:25:08.401Z,721.07
2018-04-28T03:26:08.875Z,721.06
2018-04-28T03:27:09.350Z,721.08
2018-04-28T03:28:09.824Z,721.09
2018-04-28T03:29:10.298Z,721.03
2018-04-28T03:30:10.772Z,721.08
2018-04-28T03:31:11.244Z,721.03
2018-04-28T03:32:11.720Z,721.01
2018-04-28T03:33:12.198Z,721.06
2018-04-28T03:34:12.670Z,721.03
2018-04-28T03:35:13.146Z,721.01
2018-04-28T03:36:13.618Z,721.05
2018-04-28T03:37:14.092Z,721.04
2018-04-28T03:38:14.569Z,721.05
2018-04-28T03:39:15.039Z,721.05
2018-04-28T03:40:15.513Z,721.03
2018-04-28T03:41:15.988Z,720.98
2018-04-28T03:42:16.462Z,721.02
2018-04-28T03:43:16.934Z,720.98
2018-04-28T03:44:17.404Z,720.95
2018-04-28T03:45:17.878Z,721.00
2018-04-28T03:46:18.351Z,720.94
2018-04-28T03:47:18.823Z,720.90
2018-04-28T03:48:19.297Z,720.96
2018-04-28T03:49:19.769Z,720.90
2018-04-28T03:50:20.241Z,720.95
2018-04-28T03:51:20.711Z,720.94
2018-04-28T03:52:21.188Z,720.96
2018-04-28T03:53:21.704Z,720.97
2018-04-28T03:54:22.127Z,720.99
2018-04-28T03:55:22.595Z,720.95
2018-04-28T03:56:23.066Z,721.00
2018-04-28T03:57:23.609Z,720.95
2018-04-28T03:58:24.007Z,720.99
2018-04-28T03:59:24.481Z,721.02
2018-04-28T04:00:24.949Z,721.01
2018-04-28T04:01:25.420Z,720.98
2018-04-28T04:02:25.891Z,721.00
2018-04-28T04:03:26.361Z,721.00
2018-04-28T04:04:26.831Z,721.03
2018-04-28T04:05:27.302Z,720.95
2018-04-28T04:06:27.772Z,720.97
2018-04-28T04:07:28.244Z,721.00
2018-04-28T04:08:28.711Z,721.00
2018-04-28T04:09:29.186Z,720.95
2018-04-28T04:10:29.653Z,721.02
2018-04-28T04:11:30.123Z,721.03
2018-04-28T04:12:30.596Z,720.99
2018-04-28T04:13:31.114Z,721.03
2018-04-28T04:14:31.536Z,721.03
2018-04-28T04:15:32.004Z,720.95
2018-04-28T04:16:32.476Z,721.06
2018-04-28T04:17:32.952Z,721.02
2018-04-28T04:18:33.417Z,720.97
2018-04-28T04:19:33.888Z,720.99
2018-04-28T04:20:34.360Z,720.94
2018-04-28T04:21:34.832Z,720.91
2018-04-28T04:22:35.304Z,720.95
2018-04-28T04:23:35.774Z,720.92
2018-04-28T04:24:36.245Z,720.94
2018-04-28T04:25:36.715Z,720.95
2018-04-28T04:26:37.217Z,721.02
2018-04-28T04:27:37.659Z,720.98
2018-04-28T04:28:38.132Z,720.97
2018-04-28T04:29:38.602Z,720.95
2018-04-28T04:30:39.076Z,721.00
2018-04-28T04:31:39.547Z,721.00
2018-04-28T04:32:40.020Z,721.00
2018-04-28T04:33:40.546Z,721.02
2018-04-28T04:34:40.967Z,720.99
2018-04-28T04:35:41.436Z,720.99
2018-04-28T04:36:41.910Z,721.00
2018-04-28T04:37:42.417Z,721.00
2018-04-28T04:38:42.854Z,720.98
2018-04-28T04:39:43.327Z,721.00
2018-04-28T04:40:43.799Z,721.01
2018-04-28T04:41:44.273Z,721.03
2018-04-28T04:42:44.748Z,720.99
2018-04-28T04:43:45.220Z,721.00
2018-04-28T04:44:45.693Z,721.07
2018-04-28T04:45:46.165Z,721.03
2018-04-28T04:46:46.640Z,720.97
2018-04-28T04:47:47.112Z,721.01
2018-04-28T04:48:47.585Z,721.07
2018-04-28T04:49:48.060Z,721.01
2018-04-28T04:50:48.537Z,720.94
2018-04-28T04:51:49.016Z,720.96
2018-04-28T04:52:49.481Z,721.08
2018-04-28T04:53:49.954Z,721.09
2018-04-28T04:54:50.429Z,721.04
2018-04-28T04:55:50.903Z,721.07
2018-04-28T04:56:51.379Z,721.05
2018-04-28T04:57:51.855Z,721.13
2018-04-28T04:58:52.329Z,721.07
2018-04-28T04:59:52.801Z,721.09
2018-04-28T05:00:53.276Z,721.07
2018-04-28T05:01:53.751Z,721.05
2018-04-28T05:02:54.224Z,721.09
2018-04-28T05:03:54.699Z,721.10
2018-04-28T05:04:55.174Z,721.11
2018-04-28T05:05:55.651Z,721.03
2018-04-28T05:06:56.127Z,721.14
2018-04-28T05:07:56.598Z,721.12
2018-04-28T05:08:57.074Z,721.13
2018-04-28T05:09:57.550Z,721.15
2018-04-28T05:10:58.023Z,721.12
2018-04-28T05:11:58.568Z,721.13
2018-04-28T05:12:58.972Z,721.14
2018-04-28T05:13:59.446Z,721.22
2018-04-28T05:14:59.920Z,721.18
2018-04-28T05:16:00.395Z,721.19
2018-04-28T05:17:00.874Z,721.21
2018-04-28T05:18:01.341Z,721.13
2018-04-28T05:19:01.916Z,721.16
2018-04-28T05:20:02.286Z,721.19
2018-04-28T05:21:02.759Z,721.14
2018-04-28T05:22:03.233Z,721.20
2018-04-28T05:23:03.705Z,721.19
2018-04-28T05:24:04.177Z,721.21
2018-04-28T05:25:04.650Z,721.21
2018-04-28T05:26:05.120Z,721.18
2018-04-28T05:27:05.602Z,721.19
2018-04-28T05:28:06.066Z,721.16
2018-04-28T05:29:06.536Z,721.20
2018-04-28T05:30:07.008Z,721.17
2018-04-28T05:31:07.481Z,721.11
2018-04-28T05:32:07.950Z,721.20
2018-04-28T05:33:08.421Z,721.19
2018-04-28T05:34:08.894Z,721.15
2018-04-28T05:35:09.363Z,721.16
2018-04-28T05:36:09.835Z,721.21
2018-04-28T05:37:10.308Z,721.17
2018-04-28T05:38:10.778Z,721.16
2018-04-28T05:39:11.250Z,721.18
2018-04-28T05:40:11.721Z,721.16
2018-04-28T05:41:12.194Z,721.23
2018-04-28T05:42:12.663Z,721.19
2018-04-28T05:43:13.136Z,721.16
2018-04-28T05:44:13.605Z,721.19
2018-04-28T05:45:14.078Z,721.17
2018-04-28T05:46:14.551Z,721.17
2018-04-28T05:47:15.023Z,721.22
2018-04-28T05:48:15.496Z,721.15
2018-04-28T05:49:16.016Z,721.17
2018-04-28T05:50:16.640Z,721.20
2018-04-28T05:51:16.914Z,721.15
2018-04-28T05:52:17.382Z,721.17
2018-04-28T05:53:17.867Z,721.22
2018-04-28T05:54:18.329Z,721.20
2018-04-28T05:55:18.805Z,721.19
2018-04-28T05:56:19.274Z,721.26
2018-04-28T05:57:19.746Z,721.25
2018-04-28T05:58:20.561Z,721.26
2018-04-28T05:59:20.695Z,721.22
2018-04-28T06:00:21.167Z,721.24
2018-04-28T06:01:21.643Z,721.22
2018-04-28T06:02:22.117Z,721.23
2018-04-28T06:03:22.612Z,721.21
2018-04-28T06:04:23.065Z,721.23
2018-04-28T06:05:23.540Z,721.24
2018-04-28T06:06:24.015Z,721.22
2018-04-28T06:07:24.491Z,721.20
2018-04-28T06:08:24.966Z,721.24
2018-04-28T06:09:25.439Z,721.24
2018-04-28T06:10:25.913Z,721.25
2018-04-28T06:11:26.389Z,721.24
2018-04-28T06:12:26.864Z,721.25
2018-04-28T06:13:27.345Z,721.25
2018-04-28T06:14:27.817Z,721.31
2018-04-28T06:15:28.292Z,721.28
2018-04-28T06:16:28.768Z,721.31
2018-04-28T06:17:29.243Z,721.29
2018-04-28T06:18:29.718Z,721.28
2018-04-28T06:19:30.193Z,721.35
2018-04-28T06:20:30.669Z,721.35
2018-04-28T06:21:31.145Z,721.27
2018-04-28T06:22:31.618Z,721.29
2018-04-28T06:23:32.094Z,721.32
2018-04-28T06:24:32.569Z,721.31
2018-04-28T06:25:33.045Z,721.28
2018-04-28T06:26:33.518Z,721.29
2018-04-28T06:27:33.994Z,721.31
2018-04-28T06:28:34.466Z,721.27
2018-04-28T06:29:34.941Z,721.34
2018-04-28T06:30:35.417Z,721.28
2018-04-28T06:31:35.889Z,721.34
2018-04-28T06:32:36.361Z,721.32
2018-04-28T06:33:36.838Z,721.32
2018-04-28T06:34:37.310Z,721.32
2018-04-28T06:35:37.786Z,721.35
2018-04-28T06:36:38.255Z,721.33
2018-04-28T06:37:38.731Z,721.32
2018-04-28T06:38:39.201Z,721.30
2018-04-28T06:39:39.725Z,721.31
2018-04-28T06:40:40.146Z,721.37
2018-04-28T06:41:40.625Z,721.29
2018-04-28T06:42:41.090Z,721.32
2018-04-28T06:43:41.562Z,721.30
2018-04-28T06:44:42.035Z,721.26
2018-04-28T06:45:42.507Z,721.30
2018-04-28T06:46:42.981Z,721.27
2018-04-28T06:47:43.449Z,721.30
2018-04-28T06:48:43.922Z,721.32
2018-04-28T06:49:44.394Z,721.30
2018-04-28T06:50:44.866Z,721.28
2018-04-28T06:51:45.337Z,721.32
2018-04-28T06:52:45.809Z,721.29
2018-04-28T06:53:46.282Z,721.28
2018-04-28T06:54:46.806Z,721.26
2018-04-28T06:55:47.227Z,721.28
2018-04-28T06:56:47.696Z,721.22
2018-04-28T06:57:48.172Z,721.26
2018-04-28T06:58:48.643Z,721.26
2018-04-28T06:59:49.166Z,721.29
2018-04-28T07:00:49.589Z,721.33
2018-04-28T07:01:50.069Z,721.24
2018-04-28T07:02:50.537Z,721.27
2018-04-28T07:03:51.010Z,721.27
2018-04-28T07:04:51.533Z,721.23
2018-04-28T07:05:51.955Z,721.25
2018-04-28T07:06:52.491Z,721.28
2018-04-28T07:07:52.902Z,721.23
2018-04-28T07:08:53.377Z,721.23
2018-04-28T07:09:53.852Z,721.26
2018-04-28T07:10:54.357Z,721.29
2018-04-28T07:11:54.801Z,721.24
2018-04-28T07:12:55.276Z,721.33
2018-04-28T07:13:55.749Z,721.29
2018-04-28T07:14:56.226Z,721.28
2018-04-28T07:15:56.700Z,721.24
2018-04-28T07:16:57.176Z,721.26
2018-04-28T07:17:57.652Z,721.25
2018-04-28T07:18:58.127Z,721.27
2018-04-28T07:19:58.606Z,721.25
2018-04-28T07:20:59.086Z,721.24
2018-04-28T07:21:59.557Z,721.28
2018-04-28T07:23:00.033Z,721.33
2018-04-28T07:24:00.512Z,721.31
2018-04-28T07:25:00.985Z,721.31
2018-04-28T07:26:01.465Z,721.33
2018-04-28T07:27:01.942Z,721.25
2018-04-28T07:28:02.416Z,721.33
2018-04-28T07:29:02.888Z,721.34
2018-04-28T07:30:03.364Z,721.22
2018-04-28T07:31:03.842Z,721.34
2018-04-28T07:32:04.318Z,721.28
2018-04-28T07:33:04.791Z,721.25
2018-04-28T07:34:05.268Z,721.29
2018-04-28T07:35:05.794Z,721.22
2018-04-28T07:36:06.219Z,721.30
2018-04-28T07:37:06.694Z,721.24
2018-04-28T07:38:07.175Z,721.24
2018-04-28T07:39:07.648Z,721.23
2018-04-28T07:40:08.119Z,721.25
2018-04-28T07:41:08.593Z,721.34
2018-04-28T07:42:09.067Z,721.30
2018-04-28T07:43:09.542Z,721.23
2018-04-28T07:44:10.016Z,721.28
2018-04-28T07:45:10.540Z,721.22
2018-04-28T07:46:10.964Z,721.26
2018-04-28T07:47:11.438Z,721.37
2018-04-28T07:48:11.910Z,721.35
2018-04-28T07:49:12.384Z,721.26
2018-04-28T07:50:12.859Z,721.31
2018-04-28T07:51:13.332Z,721.31
2018-04-28T07:52:13.808Z,721.29
2018-04-28T07:53:14.279Z,721.33
2018-04-28T07:54:14.750Z,721.36
2018-04-28T07:55:15.277Z,721.33
2018-04-28T07:56:15.697Z,721.19
2018-04-28T07:57:16.168Z,721.36
2018-04-28T07:58:16.641Z,721.32
2018-04-28T07:59:17.114Z,721.31
2018-04-28T08:00:17.642Z,721.27
2018-04-28T08:01:18.055Z,721.41
2018-04-28T08:02:18.529Z,721.28
2018-04-28T08:03:19.001Z,721.34
2018-04-28T08:04:19.475Z,721.38
2018-04-28T08:05:19.945Z,721.37
2018-04-28T08:06:20.418Z,721.35
2018-04-28T08:07:20.892Z,721.34
2018-04-28T08:08:21.363Z,721.42
2018-04-28T08:09:21.837Z,721.37
2018-04-28T08:10:22.310Z,721.41
2018-04-28T08:11:22.782Z,721.31
2018-04-28T08:12:23.257Z,721.28
2018-04-28T08:13:23.728Z,721.38
2018-04-28T08:14:24.201Z,721.38
2018-04-28T08:15:24.725Z,721.35
2018-04-28T08:16:25.150Z,721.40
2018-04-28T08:17:25.622Z,721.38
2018-04-28T08:18:26.097Z,721.41
2018-04-28T08:19:26.577Z,721.47
2018-04-28T08:20:27.045Z,721.39
2018-04-28T08:21:27.523Z,721.39
2018-04-28T08:22:27.995Z,721.37
2018-04-28T08:23:28.471Z,721.42
2018-04-28T08:24:28.946Z,721.42
2018-04-28T08:25:29.420Z,721.50
2018-04-28T08:26:29.973Z,721.46
2018-04-28T08:27:30.373Z,721.43
2018-04-28T08:28:30.851Z,721.36
2018-04-28T08:29:31.326Z,721.46
2018-04-28T08:30:31.802Z,721.53
2018-04-28T08:31:32.282Z,721.39
2018-04-28T08:32:32.757Z,721.41
2018-04-28T08:33:33.231Z,721.52
2018-04-28T08:34:33.708Z,721.48
2018-04-28T08:35:34.236Z,721.44
2018-04-28T08:36:34.662Z,721.48
2018-04-28T08:37:35.143Z,721.53
2018-04-28T08:38:35.616Z,721.43
2018-04-28T08:39:36.090Z,721.41
2018-04-28T08:40:36.569Z,721.40
2018-04-28T08:41:37.044Z,721.44
2018-04-28T08:42:37.521Z,721.42
2018-04-28T08:43:38.000Z,721.32
2018-04-28T08:44:38.506Z,721.49
2018-04-28T08:45:39.013Z,721.42
2018-04-28T08:46:39.424Z,721.51
2018-04-28T08:47:39.902Z,721.47
2018-04-28T08:48:40.388Z,721.46
2018-04-28T08:49:40.853Z,721.40
2018-04-28T08:50:41.329Z,721.47
2018-04-28T08:51:41.803Z,721.42
2018-04-28T08:52:42.281Z,721.45
2018-04-28T08:53:42.754Z,721.40
2018-04-28T08:54:43.230Z,721.39
2018-04-28T08:55:43.704Z,721.47
2018-04-28T08:56:44.227Z,721.42
2018-04-28T08:57:44.657Z,721.53
2018-04-28T08:58:45.129Z,721.52
2018-04-28T08:59:45.609Z,721.52
2018-04-28T09:00:46.079Z,721.59
2018-04-28T09:01:46.553Z,721.55
2018-04-28T09:02:47.030Z,721.44
2018-04-28T09:03:47.589Z,721.48
2018-04-28T09:04:47.978Z,721.46
2018-04-28T09:05:48.450Z,721.45
2018-04-28T09:06:48.926Z,721.48
2018-04-28T09:07:49.398Z,721.48
2018-04-28T09:08:49.870Z,721.43
2018-04-28T09:09:50.345Z,721.43
2018-04-28T09:10:50.870Z,721.44
2018-04-28T09:11:51.293Z,721.46
2018-04-28T09:12:51.765Z,721.45
2018-04-28T09:13:52.237Z,721.53
2018-04-28T09:14:52.712Z,721.47
2018-04-28T09:15:53.184Z,721.52
2018-04-28T09:16:53.657Z,721.52
2018-04-28T09:17:54.131Z,721.48
2018-04-28T09:18:54.603Z,721.52
2018-04-28T09:19:55.076Z,721.47
2018-04-28T09:20:55.550Z,721.64
2018-04-28T09:21:56.020Z,721.58
2018-04-28T09:22:56.495Z,721.60
2018-04-28T09:23:56.967Z,721.54
2018-04-28T09:24:57.440Z,721.54
2018-04-28T09:25:57.961Z,721.49
2018-04-28T09:26:58.386Z,721.53
2018-04-28T09:27:58.857Z,721.55
2018-04-28T09:28:59.334Z,721.54
2018-04-28T09:29:59.803Z,721.62
2018-04-28T09:31:00.279Z,721.62
2018-04-28T09:32:00.749Z,721.55
2018-04-28T09:33:01.315Z,721.58
2018-04-28T09:34:01.695Z,721.54
2018-04-28T09:35:02.175Z,721.57
2018-04-28T09:36:02.696Z,721.56
2018-04-28T09:37:03.121Z,721.56
2018-04-28T09:38:03.592Z,721.48
2018-04-28T09:39:04.068Z,721.54
2018-04-28T09:40:04.613Z,721.49
2018-04-28T09:41:05.018Z,721.51
2018-04-28T09:42:05.496Z,721.56
2018-04-28T09:43:05.968Z,721.59
2018-04-28T09:44:06.443Z,721.57
2018-04-28T09:45:06.919Z,721.59
2018-04-28T09:46:07.445Z,721.58
2018-04-28T09:47:07.873Z,721.57
2018-04-28T09:48:08.349Z,721.63
2018-04-28T09:49:08.828Z,721.54
2018-04-28T09:50:09.302Z,721.60
2018-04-28T09:51:09.780Z,721.59
2018-04-28T09:52:10.257Z,721.55
2018-04-28T09:53:10.734Z,721.52
2018-04-28T09:54:11.212Z,721.52
2018-04-28T09:55:11.686Z,721.47
2018-04-28T09:56:12.216Z,721.47
2018-04-28T09:57:12.643Z,721.50
2018-04-28T09:58:13.120Z,721.53
2018-04-28T09:59:13.597Z,721.49
2018-04-28T10:00:14.073Z,721.51
2018-04-28T10:01:14.552Z,721.53
2018-04-28T10:02:15.027Z,721.54
2018-04-28T10:03:15.506Z,721.52
2018-04-28T10:04:15.982Z,721.56
2018-04-28T10:05:16.460Z,721.61
2018-04-28T10:06:16.985Z,721.49
2018-04-28T10:07:17.412Z,721.52
2018-04-28T10:08:17.888Z,721.50
2018-04-28T10:09:18.366Z,721.53
2018-04-28T10:10:18.841Z,721.55
2018-04-28T10:11:19.320Z,721.49
2018-04-28T10:12:19.792Z,721.49
2018-04-28T10:13:20.270Z,721.46
2018-04-28T10:14:20.746Z,721.49
2018-04-28T10:15:21.221Z,721.50
2018-04-28T10:16:21.697Z,721.52
2018-04-28T10:17:22.174Z,721.53
2018-04-28T10:18:22.648Z,721.57
2018-04-28T10:19:23.126Z,721.59
2018-04-28T10:20:23.630Z,721.56
2018-04-28T10:21:24.075Z,721.58
2018-04-28T10:23:25.025Z,721.61
2018-04-28T10:24:25.499Z,721.58
2018-04-28T10:25:25.974Z,721.59
2018-04-28T10:26:26.449Z,721.48
2018-04-28T10:27:26.923Z,721.44
2018-04-28T10:28:27.400Z,721.45
2018-04-28T10:29:27.873Z,721.49
2018-04-28T10:30:28.346Z,721.55
2018-04-28T10:31:28.820Z,721.48
2018-04-28T10:32:29.293Z,721.44
2018-04-28T10:33:29.768Z,721.50
2018-04-28T10:34:30.241Z,721.60
2018-04-28T10:35:30.715Z,721.54
2018-04-28T10:36:31.190Z,721.48
2018-04-28T10:37:31.666Z,721.51
2018-04-28T10:38:32.138Z,721.54
2018-04-28T10:39:32.616Z,721.51
2018-04-28T10:40:33.084Z,721.45
2018-04-28T10:41:33.558Z,721.42
2018-04-28T10:42:34.031Z,721.48
2018-04-28T10:43:34.504Z,721.45
2018-04-28T10:44:34.990Z,721.53
2018-04-28T10:45:35.451Z,721.50
2018-04-28T10:46:35.924Z,721.54
2018-04-28T10:47:36.468Z,721.50
2018-04-28T10:48:36.869Z,721.47
2018-04-28T10:49:37.342Z,721.49
2018-04-28T10:50:37.815Z,721.46
2018-04-28T10:51:38.289Z,721.44
2018-04-28T10:52:38.759Z,721.46
2018-04-28T10:53:39.286Z,721.53
2018-04-28T10:54:39.708Z,721.53
2018-04-28T10:55:40.178Z,721.49
2018-04-28T10:56:40.650Z,721.52
2018-04-28T10:57:41.125Z,721.49
2018-04-28T10:58:41.595Z,721.50
2018-04-28T10:59:42.067Z,721.52
2018-04-28T11:00:42.541Z,721.52
2018-04-28T11:01:43.016Z,721.54
2018-04-28T11:02:43.484Z,721.53
2018-04-28T11:03:43.958Z,721.52
2018-04-28T11:04:44.439Z,721.54
2018-04-28T11:05:44.903Z,721.58
2018-04-28T11:06:45.378Z,721.52
2018-04-28T11:07:45.852Z,721.54
2018-04-28T11:08:46.324Z,721.48
2018-04-28T11:09:46.799Z,721.48
2018-04-28T11:10:47.271Z,721.52
2018-04-28T11:11:47.798Z,721.54
2018-04-28T11:12:48.220Z,721.48
2018-04-28T11:13:48.697Z,721.40
2018-04-28T11:14:49.172Z,721.53
2018-04-28T11:15:49.647Z,721.48
2018-04-28T11:16:50.121Z,721.46
2018-04-28T11:17:50.597Z,721.46
2018-04-28T11:18:51.075Z,721.49
2018-04-28T11:19:51.607Z,721.53
2018-04-28T11:20:52.026Z,721.48
2018-04-28T11:21:52.504Z,721.49
2018-04-28T11:22:52.980Z,721.52
2018-04-28T11:23:53.457Z,721.45
2018-04-28T11:24:53.934Z,721.47
2018-04-28T11:25:54.444Z,721.45
2018-04-28T11:26:54.886Z,721.47
2018-04-28T11:27:55.363Z,721.39
2018-04-28T11:28:55.842Z,721.40
2018-04-28T11:29:56.318Z,721.45
2018-04-28T11:30:56.793Z,721.44
2018-04-28T11:31:57.272Z,721.45
2018-04-28T11:32:57.756Z,721.49
2018-04-28T11:33:58.225Z,721.49
2018-04-28T11:34:58.701Z,721.50
2018-04-28T11:35:59.177Z,721.48
2018-04-28T11:36:59.656Z,721.45
2018-04-28T11:38:00.133Z,721.44
2018-04-28T11:39:00.609Z,721.42
2018-04-28T11:40:01.085Z,721.37
2018-04-28T11:41:01.562Z,721.43
2018-04-28T11:42:02.038Z,721.41
2018-04-28T11:43:02.513Z,721.40
2018-04-28T11:44:02.989Z,721.38
2018-04-28T11:45:03.468Z,721.46
2018-04-28T11:46:03.948Z,721.37
2018-04-28T11:47:04.416Z,721.47
2018-04-28T11:48:04.892Z,721.42
2018-04-28T11:49:05.369Z,721.43
2018-04-28T11:50:05.844Z,721.39
2018-04-28T11:51:06.322Z,721.47
2018-04-28T11:52:06.845Z,721.46
2018-04-28T11:53:07.272Z,721.46
2018-04-28T11:54:07.747Z,721.44
2018-04-28T11:55:08.220Z,721.45
2018-04-28T11:56:08.695Z,721.43
2018-04-28T11:57:09.168Z,721.45
2018-04-28T11:58:09.644Z,721.43
2018-04-28T11:59:10.129Z,721.44
2018-04-28T12:00:10.594Z,721.44
2018-04-28T12:01:11.067Z,721.44
2018-04-28T12:02:11.540Z,721.40
2018-04-28T12:03:12.017Z,721.48
2018-04-28T12:04:12.491Z,721.44
2018-04-28T12:05:13.039Z,721.46
2018-04-28T12:06:13.437Z,721.41
2018-04-28T12:07:13.914Z,721.50
2018-04-28T12:08:14.385Z,721.45
2018-04-28T12:09:14.859Z,721.47
2018-04-28T12:10:15.335Z,721.41
2018-04-28T12:11:15.805Z,721.41
2018-04-28T12:12:16.329Z,721.40
2018-04-28T12:13:16.753Z,721.49
2018-04-28T12:14:17.227Z,721.41
2018-04-28T12:15:17.699Z,721.38
2018-04-28T12:16:18.172Z,721.41
2018-04-28T12:17:18.646Z,721.32
2018-04-28T12:18:19.118Z,721.39
2018-04-28T12:19:19.593Z,721.43
2018-04-28T12:20:20.064Z,721.36
2018-04-28T12:21:20.538Z,721.39
2018-04-28T12:22:21.014Z,721.43
2018-04-28T12:23:21.492Z,721.41
2018-04-28T12:24:21.956Z,721.40
2018-04-28T12:25:22.433Z,721.36
2018-04-28T12:26:22.902Z,721.37
2018-04-28T12:27:23.424Z,721.37
2018-04-28T12:28:23.845Z,721.42
2018-04-28T12:29:24.319Z,721.36
2018-04-28T12:30:24.792Z,721.36
2018-04-28T12:31:25.263Z,721.36
2018-04-28T12:32:25.786Z,721.34
2018-04-28T12:33:26.208Z,721.39
2018-04-28T12:34:26.682Z,721.35
2018-04-28T12:35:27.155Z,721.36